sensor_id;sensor_type;location;lat;lon;timestamp;temperature;humidity
13223;DHT22;6676;45.192;5.722;2023-05-08T00:02:33;16.10;99.90
13223;DHT22;6676;45.192;5.722;2023-05-08T00:05:25;16.10;99.90
13223;DHT22;6676;45.192;5.722;2023-05-08T00:08:16;16.10;99.90
13223;DHT22;6676;45.192;5.722;2023-05-08T00:11:07;16.10;99.90
13223;DHT22;6676;45.192;5.722;2023-05-08T00:13:59;16.10;99.90
13223;DHT22;6676;45.192;5.722;2023-05-08T00:16:51;16.10;99.90
13223;DHT22;6676;45.192;5.722;2023-05-08T00:19:42;16.00;99.90
13223;DHT22;6676;45.192;5.722;2023-05-08T00:22:33;16.00;99.90
13223;DHT22;6676;45.192;5.722;2023-05-08T00:25:25;16.00;99.90
13223;DHT22;6676;45.192;5.722;2023-05-08T00:28:17;16.10;99.90
13223;DHT22;6676;45.192;5.722;2023-05-08T00:31:08;16.10;99.90
13223;DHT22;6676;45.192;5.722;2023-05-08T00:34:00;16.20;99.90
13223;DHT22;6676;45.192;5.722;2023-05-08T00:36:52;16.20;99.90
13223;DHT22;6676;45.192;5.722;2023-05-08T00:39:43;16.10;99.90
13223;DHT22;6676;45.192;5.722;2023-05-08T00:42:35;16.10;99.90
13223;DHT22;6676;45.192;5.722;2023-05-08T00:45:29;16.00;99.90
13223;DHT22;6676;45.192;5.722;2023-05-08T00:48:21;16.00;99.90
13223;DHT22;6676;45.192;5.722;2023-05-08T00:51:13;16.00;99.90
13223;DHT22;6676;45.192;5.722;2023-05-08T00:54:05;16.00;99.90
13223;DHT22;6676;45.192;5.722;2023-05-08T00:56:56;16.00;99.90
13223;DHT22;6676;45.192;5.722;2023-05-08T01:02:29;16.00;99.90
13223;DHT22;6676;45.192;5.722;2023-05-08T01:05:22;16.00;99.90
13223;DHT22;6676;45.192;5.722;2023-05-08T01:08:13;15.90;99.90
13223;DHT22;6676;45.192;5.722;2023-05-08T01:11:10;16.00;99.90
13223;DHT22;6676;45.192;5.722;2023-05-08T01:14:09;15.90;99.90
13223;DHT22;6676;45.192;5.722;2023-05-08T01:17:05;15.80;99.90
13223;DHT22;6676;45.192;5.722;2023-05-08T01:20:11;15.70;99.90
13223;DHT22;6676;45.192;5.722;2023-05-08T01:23:30;15.70;99.90
13223;DHT22;6676;45.192;5.722;2023-05-08T01:32:58;15.60;99.90
13223;DHT22;6676;45.192;5.722;2023-05-08T01:35:53;15.60;99.90
13223;DHT22;6676;45.192;5.722;2023-05-08T01:38:52;15.60;99.90
13223;DHT22;6676;45.192;5.722;2023-05-08T01:41:41;15.60;99.90
13223;DHT22;6676;45.192;5.722;2023-05-08T01:44:36;15.60;99.90
13223;DHT22;6676;45.192;5.722;2023-05-08T01:47:29;15.50;99.90
13223;DHT22;6676;45.192;5.722;2023-05-08T01:50:30;15.50;99.90
13223;DHT22;6676;45.192;5.722;2023-05-08T01:53:20;15.50;99.90
13223;DHT22;6676;45.192;5.722;2023-05-08T01:56:14;15.60;99.90
13223;DHT22;6676;45.192;5.722;2023-05-08T01:59:06;15.50;99.90
13223;DHT22;6676;45.192;5.722;2023-05-08T02:01:58;15.50;99.90
13223;DHT22;6676;45.192;5.722;2023-05-08T02:04:52;15.60;99.90
13223;DHT22;6676;45.192;5.722;2023-05-08T02:07:46;15.60;99.90
13223;DHT22;6676;45.192;5.722;2023-05-08T02:10:39;15.60;99.90
13223;DHT22;6676;45.192;5.722;2023-05-08T02:13:33;15.40;99.90
13223;DHT22;6676;45.192;5.722;2023-05-08T02:16:27;15.30;99.90
13223;DHT22;6676;45.192;5.722;2023-05-08T02:19:20;15.30;99.90
13223;DHT22;6676;45.192;5.722;2023-05-08T02:22:13;15.20;99.90
13223;DHT22;6676;45.192;5.722;2023-05-08T02:25:07;15.10;99.90
13223;DHT22;6676;45.192;5.722;2023-05-08T02:30:39;15.10;99.90
13223;DHT22;6676;45.192;5.722;2023-05-08T02:33:31;15.20;99.90
13223;DHT22;6676;45.192;5.722;2023-05-08T02:36:22;15.30;99.90
13223;DHT22;6676;45.192;5.722;2023-05-08T02:39:18;15.30;99.90
13223;DHT22;6676;45.192;5.722;2023-05-08T02:42:10;15.30;99.90
13223;DHT22;6676;45.192;5.722;2023-05-08T02:45:03;15.30;99.90
13223;DHT22;6676;45.192;5.722;2023-05-08T02:50:41;15.20;99.90
13223;DHT22;6676;45.192;5.722;2023-05-08T02:53:39;15.20;99.90
13223;DHT22;6676;45.192;5.722;2023-05-08T02:56:36;15.20;99.90
13223;DHT22;6676;45.192;5.722;2023-05-08T02:59:34;15.20;99.90
13223;DHT22;6676;45.192;5.722;2023-05-08T03:02:27;15.20;99.90
13223;DHT22;6676;45.192;5.722;2023-05-08T03:05:22;15.30;99.90
13223;DHT22;6676;45.192;5.722;2023-05-08T03:08:17;15.40;99.90
13223;DHT22;6676;45.192;5.722;2023-05-08T03:11:11;15.40;99.90
13223;DHT22;6676;45.192;5.722;2023-05-08T03:14:03;15.50;99.90
13223;DHT22;6676;45.192;5.722;2023-05-08T03:16:58;15.50;99.90
13223;DHT22;6676;45.192;5.722;2023-05-08T03:19:53;15.50;99.90
13223;DHT22;6676;45.192;5.722;2023-05-08T03:22:46;15.50;99.90
13223;DHT22;6676;45.192;5.722;2023-05-08T03:25:40;15.40;99.90
13223;DHT22;6676;45.192;5.722;2023-05-08T03:28:35;15.40;99.90
13223;DHT22;6676;45.192;5.722;2023-05-08T03:31:28;15.40;99.90
13223;DHT22;6676;45.192;5.722;2023-05-08T03:34:23;15.30;99.90
13223;DHT22;6676;45.192;5.722;2023-05-08T03:37:14;15.40;99.90
13223;DHT22;6676;45.192;5.722;2023-05-08T03:40:08;15.40;99.90
13223;DHT22;6676;45.192;5.722;2023-05-08T03:43:01;15.40;99.90
13223;DHT22;6676;45.192;5.722;2023-05-08T03:45:54;15.30;99.90
13223;DHT22;6676;45.192;5.722;2023-05-08T03:48:47;15.40;99.90
13223;DHT22;6676;45.192;5.722;2023-05-08T03:51:40;15.40;99.90
13223;DHT22;6676;45.192;5.722;2023-05-08T03:54:32;15.40;99.90
13223;DHT22;6676;45.192;5.722;2023-05-08T03:57:25;15.40;99.90
13223;DHT22;6676;45.192;5.722;2023-05-08T04:03:08;15.40;99.90
13223;DHT22;6676;45.192;5.722;2023-05-08T04:06:08;15.40;99.90
13223;DHT22;6676;45.192;5.722;2023-05-08T04:09:01;15.40;99.90
13223;DHT22;6676;45.192;5.722;2023-05-08T04:11:59;15.50;99.90
13223;DHT22;6676;45.192;5.722;2023-05-08T04:14:55;15.40;99.90
13223;DHT22;6676;45.192;5.722;2023-05-08T04:17:50;15.40;99.90
13223;DHT22;6676;45.192;5.722;2023-05-08T04:20:45;15.40;99.90
13223;DHT22;6676;45.192;5.722;2023-05-08T04:23:39;15.40;99.90
13223;DHT22;6676;45.192;5.722;2023-05-08T04:26:33;15.50;99.90
13223;DHT22;6676;45.192;5.722;2023-05-08T04:29:27;15.50;99.90
13223;DHT22;6676;45.192;5.722;2023-05-08T04:32:19;15.50;99.90
13223;DHT22;6676;45.192;5.722;2023-05-08T04:37:51;15.50;99.90
13223;DHT22;6676;45.192;5.722;2023-05-08T04:40:43;15.50;99.90
13223;DHT22;6676;45.192;5.722;2023-05-08T04:43:34;15.50;99.90
13223;DHT22;6676;45.192;5.722;2023-05-08T04:46:27;15.50;99.90
13223;DHT22;6676;45.192;5.722;2023-05-08T04:49:18;15.60;99.90
13223;DHT22;6676;45.192;5.722;2023-05-08T04:52:10;15.60;99.90
13223;DHT22;6676;45.192;5.722;2023-05-08T04:55:02;15.60;99.90
13223;DHT22;6676;45.192;5.722;2023-05-08T04:57:55;15.70;99.90
13223;DHT22;6676;45.192;5.722;2023-05-08T05:00:46;15.70;99.90
13223;DHT22;6676;45.192;5.722;2023-05-08T05:03:38;15.70;99.90
13223;DHT22;6676;45.192;5.722;2023-05-08T05:09:09;15.70;99.90
13223;DHT22;6676;45.192;5.722;2023-05-08T05:12:00;15.70;99.90
13223;DHT22;6676;45.192;5.722;2023-05-08T05:14:52;15.70;99.90
13223;DHT22;6676;45.192;5.722;2023-05-08T05:17:44;15.80;99.90
13223;DHT22;6676;45.192;5.722;2023-05-08T05:20:36;15.80;99.90
13223;DHT22;6676;45.192;5.722;2023-05-08T05:23:28;15.70;99.90
13223;DHT22;6676;45.192;5.722;2023-05-08T05:29:01;15.80;99.90
13223;DHT22;6676;45.192;5.722;2023-05-08T05:31:53;15.80;99.90
13223;DHT22;6676;45.192;5.722;2023-05-08T05:34:44;15.90;99.90
13223;DHT22;6676;45.192;5.722;2023-05-08T05:37:36;16.00;99.90
13223;DHT22;6676;45.192;5.722;2023-05-08T05:40:27;16.00;99.90
13223;DHT22;6676;45.192;5.722;2023-05-08T05:43:20;16.10;99.90
13223;DHT22;6676;45.192;5.722;2023-05-08T05:46:12;16.20;99.90
13223;DHT22;6676;45.192;5.722;2023-05-08T05:49:04;16.30;99.90
13223;DHT22;6676;45.192;5.722;2023-05-08T05:51:56;16.30;99.90
13223;DHT22;6676;45.192;5.722;2023-05-08T05:54:48;16.40;99.90
13223;DHT22;6676;45.192;5.722;2023-05-08T05:57:39;16.50;99.90
13223;DHT22;6676;45.192;5.722;2023-05-08T06:00:31;16.60;99.90
13223;DHT22;6676;45.192;5.722;2023-05-08T06:03:22;16.70;99.90
13223;DHT22;6676;45.192;5.722;2023-05-08T06:06:14;16.70;99.90
13223;DHT22;6676;45.192;5.722;2023-05-08T06:09:05;16.80;99.90
13223;DHT22;6676;45.192;5.722;2023-05-08T06:11:56;16.80;99.90
13223;DHT22;6676;45.192;5.722;2023-05-08T06:14:48;16.90;99.90
13223;DHT22;6676;45.192;5.722;2023-05-08T06:17:41;17.00;99.90
13223;DHT22;6676;45.192;5.722;2023-05-08T06:20:32;17.00;99.90
13223;DHT22;6676;45.192;5.722;2023-05-08T06:23:23;17.10;99.90
13223;DHT22;6676;45.192;5.722;2023-05-08T06:26:14;17.20;99.90
13223;DHT22;6676;45.192;5.722;2023-05-08T06:29:06;17.30;99.90
13223;DHT22;6676;45.192;5.722;2023-05-08T06:31:57;17.30;99.90
13223;DHT22;6676;45.192;5.722;2023-05-08T06:34:48;17.10;99.90
13223;DHT22;6676;45.192;5.722;2023-05-08T06:40:28;17.20;99.90
13223;DHT22;6676;45.192;5.722;2023-05-08T06:43:20;17.20;99.90
13223;DHT22;6676;45.192;5.722;2023-05-08T06:46:13;17.40;99.90
13223;DHT22;6676;45.192;5.722;2023-05-08T06:49:05;17.40;99.90
13223;DHT22;6676;45.192;5.722;2023-05-08T06:51:58;17.40;99.90
13223;DHT22;6676;45.192;5.722;2023-05-08T06:54:50;17.50;99.90
13223;DHT22;6676;45.192;5.722;2023-05-08T06:57:41;17.50;99.90
13223;DHT22;6676;45.192;5.722;2023-05-08T07:00:33;17.50;99.90
13223;DHT22;6676;45.192;5.722;2023-05-08T07:03:25;17.50;99.90
13223;DHT22;6676;45.192;5.722;2023-05-08T07:06:17;17.50;99.90
13223;DHT22;6676;45.192;5.722;2023-05-08T07:09:08;17.70;99.90
13223;DHT22;6676;45.192;5.722;2023-05-08T07:12:01;17.70;99.90
13223;DHT22;6676;45.192;5.722;2023-05-08T07:14:52;17.70;99.90
13223;DHT22;6676;45.192;5.722;2023-05-08T07:17:45;17.70;99.90
13223;DHT22;6676;45.192;5.722;2023-05-08T07:20:36;17.70;99.90
13223;DHT22;6676;45.192;5.722;2023-05-08T07:23:30;17.80;99.90
13223;DHT22;6676;45.192;5.722;2023-05-08T07:26:22;17.80;99.90
13223;DHT22;6676;45.192;5.722;2023-05-08T07:29:13;17.70;99.90
13223;DHT22;6676;45.192;5.722;2023-05-08T07:32:07;17.70;99.90
13223;DHT22;6676;45.192;5.722;2023-05-08T07:37:38;17.80;99.90
13223;DHT22;6676;45.192;5.722;2023-05-08T07:40:29;17.90;99.90
13223;DHT22;6676;45.192;5.722;2023-05-08T07:43:21;17.80;99.90
13223;DHT22;6676;45.192;5.722;2023-05-08T07:46:17;17.80;99.90
13223;DHT22;6676;45.192;5.722;2023-05-08T07:49:08;18.00;99.90
13223;DHT22;6676;45.192;5.722;2023-05-08T07:51:59;18.10;99.90
13223;DHT22;6676;45.192;5.722;2023-05-08T07:54:50;18.10;99.90
13223;DHT22;6676;45.192;5.722;2023-05-08T07:57:42;18.20;99.90
13223;DHT22;6676;45.192;5.722;2023-05-08T08:00:34;18.10;99.90
13223;DHT22;6676;45.192;5.722;2023-05-08T08:03:25;18.10;99.90
13223;DHT22;6676;45.192;5.722;2023-05-08T08:06:17;18.10;99.90
13223;DHT22;6676;45.192;5.722;2023-05-08T08:09:09;18.00;99.90
13223;DHT22;6676;45.192;5.722;2023-05-08T08:12:01;18.10;99.90
13223;DHT22;6676;45.192;5.722;2023-05-08T08:14:52;18.10;99.90
13223;DHT22;6676;45.192;5.722;2023-05-08T08:17:43;18.10;99.90
13223;DHT22;6676;45.192;5.722;2023-05-08T08:23:16;18.20;99.90
13223;DHT22;6676;45.192;5.722;2023-05-08T08:26:07;18.20;99.90
13223;DHT22;6676;45.192;5.722;2023-05-08T08:28:58;18.10;99.90
13223;DHT22;6676;45.192;5.722;2023-05-08T08:31:49;18.10;99.90
13223;DHT22;6676;45.192;5.722;2023-05-08T08:34:41;18.10;99.90
13223;DHT22;6676;45.192;5.722;2023-05-08T08:37:32;18.20;99.90
13223;DHT22;6676;45.192;5.722;2023-05-08T08:40:25;18.20;99.90
13223;DHT22;6676;45.192;5.722;2023-05-08T08:43:19;18.20;99.90
13223;DHT22;6676;45.192;5.722;2023-05-08T08:46:12;18.30;99.90
13223;DHT22;6676;45.192;5.722;2023-05-08T08:49:04;18.40;99.90
13223;DHT22;6676;45.192;5.722;2023-05-08T08:52:00;18.50;99.90
13223;DHT22;6676;45.192;5.722;2023-05-08T08:54:53;18.70;99.90
13223;DHT22;6676;45.192;5.722;2023-05-08T08:57:50;18.90;99.90
13223;DHT22;6676;45.192;5.722;2023-05-08T09:00:41;19.00;99.90
13223;DHT22;6676;45.192;5.722;2023-05-08T09:03:33;19.20;99.90
13223;DHT22;6676;45.192;5.722;2023-05-08T09:06:24;19.20;99.90
13223;DHT22;6676;45.192;5.722;2023-05-08T09:09:16;19.20;99.90
13223;DHT22;6676;45.192;5.722;2023-05-08T09:12:08;19.20;99.90
13223;DHT22;6676;45.192;5.722;2023-05-08T09:15:00;19.10;99.90
13223;DHT22;6676;45.192;5.722;2023-05-08T09:17:52;19.10;99.90
13223;DHT22;6676;45.192;5.722;2023-05-08T09:20:44;19.10;99.90
13223;DHT22;6676;45.192;5.722;2023-05-08T09:23:36;19.10;99.90
13223;DHT22;6676;45.192;5.722;2023-05-08T09:26:28;19.10;99.90
13223;DHT22;6676;45.192;5.722;2023-05-08T09:29:21;19.00;99.90
13223;DHT22;6676;45.192;5.722;2023-05-08T09:34:58;18.90;99.90
13223;DHT22;6676;45.192;5.722;2023-05-08T09:37:49;19.00;99.90
13223;DHT22;6676;45.192;5.722;2023-05-08T09:43:22;18.90;99.90
13223;DHT22;6676;45.192;5.722;2023-05-08T09:46:24;18.90;99.90
13223;DHT22;6676;45.192;5.722;2023-05-08T09:49:17;18.80;99.90
13223;DHT22;6676;45.192;5.722;2023-05-08T09:52:11;18.80;99.90
13223;DHT22;6676;45.192;5.722;2023-05-08T09:55:08;18.80;99.90
13223;DHT22;6676;45.192;5.722;2023-05-08T09:57:59;18.80;99.90
13223;DHT22;6676;45.192;5.722;2023-05-08T10:00:52;18.90;99.90
13223;DHT22;6676;45.192;5.722;2023-05-08T10:03:47;19.10;99.90
13223;DHT22;6676;45.192;5.722;2023-05-08T10:06:38;19.00;99.90
13223;DHT22;6676;45.192;5.722;2023-05-08T10:09:30;19.10;99.90
13223;DHT22;6676;45.192;5.722;2023-05-08T10:12:22;19.20;99.90
13223;DHT22;6676;45.192;5.722;2023-05-08T10:15:15;19.30;99.90
13223;DHT22;6676;45.192;5.722;2023-05-08T10:18:07;19.20;99.90
13223;DHT22;6676;45.192;5.722;2023-05-08T10:21:03;19.20;99.90
13223;DHT22;6676;45.192;5.722;2023-05-08T10:23:57;19.30;99.90
13223;DHT22;6676;45.192;5.722;2023-05-08T10:26:54;19.50;99.90
13223;DHT22;6676;45.192;5.722;2023-05-08T10:29:51;19.50;99.90
13223;DHT22;6676;45.192;5.722;2023-05-08T10:32:43;19.70;99.90
13223;DHT22;6676;45.192;5.722;2023-05-08T10:35:36;19.70;99.90
13223;DHT22;6676;45.192;5.722;2023-05-08T10:38:26;19.70;99.90
13223;DHT22;6676;45.192;5.722;2023-05-08T10:41:19;19.80;99.90
13223;DHT22;6676;45.192;5.722;2023-05-08T10:44:11;19.90;99.90
13223;DHT22;6676;45.192;5.722;2023-05-08T10:47:09;20.10;99.90
13223;DHT22;6676;45.192;5.722;2023-05-08T10:50:05;20.10;99.90
13223;DHT22;6676;45.192;5.722;2023-05-08T10:53:01;20.20;99.90
13223;DHT22;6676;45.192;5.722;2023-05-08T10:55:54;20.10;99.90
13223;DHT22;6676;45.192;5.722;2023-05-08T10:58:46;20.00;99.90
13223;DHT22;6676;45.192;5.722;2023-05-08T11:04:21;20.00;99.90
13223;DHT22;6676;45.192;5.722;2023-05-08T11:07:12;19.90;99.90
13223;DHT22;6676;45.192;5.722;2023-05-08T11:10:13;20.00;99.90
13223;DHT22;6676;45.192;5.722;2023-05-08T11:13:06;20.00;99.90
13223;DHT22;6676;45.192;5.722;2023-05-08T11:25:46;20.00;99.90
13223;DHT22;6676;45.192;5.722;2023-05-08T11:28:38;20.10;99.90
13223;DHT22;6676;45.192;5.722;2023-05-08T11:31:50;20.20;99.90
13223;DHT22;6676;45.192;5.722;2023-05-08T11:34:51;20.20;99.90
13223;DHT22;6676;45.192;5.722;2023-05-08T11:37:47;20.10;99.90
13223;DHT22;6676;45.192;5.722;2023-05-08T11:40:47;20.00;99.90
13223;DHT22;6676;45.192;5.722;2023-05-08T11:47:04;20.10;99.90
13223;DHT22;6676;45.192;5.722;2023-05-08T11:49:56;19.90;99.90
13223;DHT22;6676;45.192;5.722;2023-05-08T11:52:49;19.90;99.90
13223;DHT22;6676;45.192;5.722;2023-05-08T11:55:41;19.80;99.90
13223;DHT22;6676;45.192;5.722;2023-05-08T11:58:32;19.70;99.90
13223;DHT22;6676;45.192;5.722;2023-05-08T12:01:25;19.80;99.90
13223;DHT22;6676;45.192;5.722;2023-05-08T12:04:16;19.90;99.90
13223;DHT22;6676;45.192;5.722;2023-05-08T12:07:09;19.70;99.90
13223;DHT22;6676;45.192;5.722;2023-05-08T12:10:03;19.80;99.90
13223;DHT22;6676;45.192;5.722;2023-05-08T12:12:54;19.80;99.90
13223;DHT22;6676;45.192;5.722;2023-05-08T12:15:46;19.70;99.90
13223;DHT22;6676;45.192;5.722;2023-05-08T12:18:39;19.80;99.90
13223;DHT22;6676;45.192;5.722;2023-05-08T12:21:31;19.90;99.90
13223;DHT22;6676;45.192;5.722;2023-05-08T12:24:23;19.90;99.90
13223;DHT22;6676;45.192;5.722;2023-05-08T12:27:15;19.70;99.90
13223;DHT22;6676;45.192;5.722;2023-05-08T12:30:09;19.70;99.90
13223;DHT22;6676;45.192;5.722;2023-05-08T12:33:01;19.80;99.90
13223;DHT22;6676;45.192;5.722;2023-05-08T12:35:54;20.00;99.90
13223;DHT22;6676;45.192;5.722;2023-05-08T12:38:46;20.00;99.90
13223;DHT22;6676;45.192;5.722;2023-05-08T12:41:48;20.00;99.90
13223;DHT22;6676;45.192;5.722;2023-05-08T12:44:40;20.10;99.90
13223;DHT22;6676;45.192;5.722;2023-05-08T12:50:15;20.30;99.90
13223;DHT22;6676;45.192;5.722;2023-05-08T12:53:08;20.30;99.90
13223;DHT22;6676;45.192;5.722;2023-05-08T12:56:02;20.40;99.90
13223;DHT22;6676;45.192;5.722;2023-05-08T12:58:58;20.40;99.90
13223;DHT22;6676;45.192;5.722;2023-05-08T13:01:51;20.50;99.90
13223;DHT22;6676;45.192;5.722;2023-05-08T13:04:42;20.70;99.90
13223;DHT22;6676;45.192;5.722;2023-05-08T13:07:34;20.70;99.90
13223;DHT22;6676;45.192;5.722;2023-05-08T13:10:25;20.80;99.90
13223;DHT22;6676;45.192;5.722;2023-05-08T13:13:17;21.10;99.90
13223;DHT22;6676;45.192;5.722;2023-05-08T13:16:09;21.00;99.90
13223;DHT22;6676;45.192;5.722;2023-05-08T13:19:01;21.00;99.90
13223;DHT22;6676;45.192;5.722;2023-05-08T13:21:53;21.00;99.90
13223;DHT22;6676;45.192;5.722;2023-05-08T13:24:45;21.00;99.90
13223;DHT22;6676;45.192;5.722;2023-05-08T13:27:36;21.10;99.90
13223;DHT22;6676;45.192;5.722;2023-05-08T13:30:27;21.10;99.90
13223;DHT22;6676;45.192;5.722;2023-05-08T13:33:19;21.20;99.90
13223;DHT22;6676;45.192;5.722;2023-05-08T13:36:10;21.20;99.90
13223;DHT22;6676;45.192;5.722;2023-05-08T13:39:01;21.10;99.90
13223;DHT22;6676;45.192;5.722;2023-05-08T13:41:52;21.00;99.90
13223;DHT22;6676;45.192;5.722;2023-05-08T13:44:44;20.80;99.90
13223;DHT22;6676;45.192;5.722;2023-05-08T13:47:35;20.90;99.90
13223;DHT22;6676;45.192;5.722;2023-05-08T13:50:27;21.00;99.90
13223;DHT22;6676;45.192;5.722;2023-05-08T13:56:01;21.50;99.90
13223;DHT22;6676;45.192;5.722;2023-05-08T13:58:52;21.60;99.90
13223;DHT22;6676;45.192;5.722;2023-05-08T14:01:44;21.70;99.90
13223;DHT22;6676;45.192;5.722;2023-05-08T14:04:35;21.90;99.90
13223;DHT22;6676;45.192;5.722;2023-05-08T14:07:26;22.00;99.90
13223;DHT22;6676;45.192;5.722;2023-05-08T14:10:18;22.20;99.90
13223;DHT22;6676;45.192;5.722;2023-05-08T14:13:10;22.00;99.90
13223;DHT22;6676;45.192;5.722;2023-05-08T14:16:01;21.90;99.90
13223;DHT22;6676;45.192;5.722;2023-05-08T14:18:54;21.90;99.90
13223;DHT22;6676;45.192;5.722;2023-05-08T14:21:45;21.40;99.90
13223;DHT22;6676;45.192;5.722;2023-05-08T14:24:37;21.50;99.90
13223;DHT22;6676;45.192;5.722;2023-05-08T14:30:09;22.10;99.90
13223;DHT22;6676;45.192;5.722;2023-05-08T14:33:01;22.10;99.90
13223;DHT22;6676;45.192;5.722;2023-05-08T14:35:52;22.20;99.90
13223;DHT22;6676;45.192;5.722;2023-05-08T14:41:25;22.70;99.90
13223;DHT22;6676;45.192;5.722;2023-05-08T14:44:15;22.70;99.90
13223;DHT22;6676;45.192;5.722;2023-05-08T14:47:06;22.70;99.90
13223;DHT22;6676;45.192;5.722;2023-05-08T14:49:58;22.80;99.90
13223;DHT22;6676;45.192;5.722;2023-05-08T14:55:28;23.10;99.90
13223;DHT22;6676;45.192;5.722;2023-05-08T14:58:20;23.20;99.90
13223;DHT22;6676;45.192;5.722;2023-05-08T15:01:11;23.50;99.90
13223;DHT22;6676;45.192;5.722;2023-05-08T15:04:02;23.60;99.90
13223;DHT22;6676;45.192;5.722;2023-05-08T15:06:53;23.60;99.90
13223;DHT22;6676;45.192;5.722;2023-05-08T15:09:45;23.80;99.90
13223;DHT22;6676;45.192;5.722;2023-05-08T15:12:36;23.70;99.90
13223;DHT22;6676;45.192;5.722;2023-05-08T15:15:28;23.60;99.90
13223;DHT22;6676;45.192;5.722;2023-05-08T15:18:19;23.70;99.90
13223;DHT22;6676;45.192;5.722;2023-05-08T15:21:12;24.00;99.90
13223;DHT22;6676;45.192;5.722;2023-05-08T15:24:05;24.20;99.90
13223;DHT22;6676;45.192;5.722;2023-05-08T15:26:56;24.00;99.90
13223;DHT22;6676;45.192;5.722;2023-05-08T15:29:48;24.00;99.90
13223;DHT22;6676;45.192;5.722;2023-05-08T15:32:40;24.00;99.90
13223;DHT22;6676;45.192;5.722;2023-05-08T15:35:32;24.00;99.90
13223;DHT22;6676;45.192;5.722;2023-05-08T15:38:23;24.20;99.90
13223;DHT22;6676;45.192;5.722;2023-05-08T15:41:15;24.40;99.90
13223;DHT22;6676;45.192;5.722;2023-05-08T15:44:06;24.70;99.90
13223;DHT22;6676;45.192;5.722;2023-05-08T15:46:58;24.30;99.90
13223;DHT22;6676;45.192;5.722;2023-05-08T15:49:49;24.30;99.90
13223;DHT22;6676;45.192;5.722;2023-05-08T15:52:41;24.40;99.90
13223;DHT22;6676;45.192;5.722;2023-05-08T15:55:32;23.80;99.90
13223;DHT22;6676;45.192;5.722;2023-05-08T15:58:24;23.60;99.90
13223;DHT22;6676;45.192;5.722;2023-05-08T16:03:56;23.70;99.90
13223;DHT22;6676;45.192;5.722;2023-05-08T16:09:27;24.20;99.90
13223;DHT22;6676;45.192;5.722;2023-05-08T16:12:18;24.30;99.90
13223;DHT22;6676;45.192;5.722;2023-05-08T16:15:10;24.40;99.90
13223;DHT22;6676;45.192;5.722;2023-05-08T16:18:02;25.00;99.90
13223;DHT22;6676;45.192;5.722;2023-05-08T16:20:54;25.60;99.90
13223;DHT22;6676;45.192;5.722;2023-05-08T16:23:45;25.40;99.90
13223;DHT22;6676;45.192;5.722;2023-05-08T16:26:37;25.30;99.90
13223;DHT22;6676;45.192;5.722;2023-05-08T16:29:28;25.50;99.90
13223;DHT22;6676;45.192;5.722;2023-05-08T16:32:20;25.50;99.90
13223;DHT22;6676;45.192;5.722;2023-05-08T16:35:11;25.60;99.90
13223;DHT22;6676;45.192;5.722;2023-05-08T16:38:03;25.50;99.90
13223;DHT22;6676;45.192;5.722;2023-05-08T16:41:00;24.80;99.90
13223;DHT22;6676;45.192;5.722;2023-05-08T16:43:51;24.00;99.90
13223;DHT22;6676;45.192;5.722;2023-05-08T16:46:42;23.70;99.90
13223;DHT22;6676;45.192;5.722;2023-05-08T16:49:33;23.60;99.90
13223;DHT22;6676;45.192;5.722;2023-05-08T16:52:25;23.70;99.90
13223;DHT22;6676;45.192;5.722;2023-05-08T16:57:56;24.00;99.90
13223;DHT22;6676;45.192;5.722;2023-05-08T17:00:47;23.60;99.90
13223;DHT22;6676;45.192;5.722;2023-05-08T17:03:38;22.70;99.90
13223;DHT22;6676;45.192;5.722;2023-05-08T17:06:29;22.40;99.90
13223;DHT22;6676;45.192;5.722;2023-05-08T17:09:21;22.10;99.90
13223;DHT22;6676;45.192;5.722;2023-05-08T17:12:13;21.90;99.90
13223;DHT22;6676;45.192;5.722;2023-05-08T17:15:06;22.00;99.90
13223;DHT22;6676;45.192;5.722;2023-05-08T17:17:58;22.10;99.90
13223;DHT22;6676;45.192;5.722;2023-05-08T17:20:49;22.20;99.90
13223;DHT22;6676;45.192;5.722;2023-05-08T17:23:40;22.00;99.90
13223;DHT22;6676;45.192;5.722;2023-05-08T17:26:32;21.90;99.90
13223;DHT22;6676;45.192;5.722;2023-05-08T17:29:24;21.80;99.90
13223;DHT22;6676;45.192;5.722;2023-05-08T17:34:55;21.60;99.90
13223;DHT22;6676;45.192;5.722;2023-05-08T17:37:46;21.50;99.90
13223;DHT22;6676;45.192;5.722;2023-05-08T17:40:37;21.40;99.90
13223;DHT22;6676;45.192;5.722;2023-05-08T17:43:28;21.40;99.90
13223;DHT22;6676;45.192;5.722;2023-05-08T17:46:20;21.30;99.90
13223;DHT22;6676;45.192;5.722;2023-05-08T17:49:11;21.20;99.90
13223;DHT22;6676;45.192;5.722;2023-05-08T17:54:44;20.90;99.90
13223;DHT22;6676;45.192;5.722;2023-05-08T18:00:17;20.70;99.90
13223;DHT22;6676;45.192;5.722;2023-05-08T18:03:08;20.70;99.90
13223;DHT22;6676;45.192;5.722;2023-05-08T18:06:01;20.60;99.90
13223;DHT22;6676;45.192;5.722;2023-05-08T18:08:52;20.60;99.90
13223;DHT22;6676;45.192;5.722;2023-05-08T18:11:43;20.60;99.90
13223;DHT22;6676;45.192;5.722;2023-05-08T18:17:15;20.60;99.90
13223;DHT22;6676;45.192;5.722;2023-05-08T18:20:09;20.50;99.90
13223;DHT22;6676;45.192;5.722;2023-05-08T18:25:40;20.40;99.90
13223;DHT22;6676;45.192;5.722;2023-05-08T18:28:31;20.30;99.90
13223;DHT22;6676;45.192;5.722;2023-05-08T18:31:23;20.40;99.90
13223;DHT22;6676;45.192;5.722;2023-05-08T18:34:14;20.30;99.90
13223;DHT22;6676;45.192;5.722;2023-05-08T18:37:05;20.20;99.90
13223;DHT22;6676;45.192;5.722;2023-05-08T18:39:57;20.20;99.90
13223;DHT22;6676;45.192;5.722;2023-05-08T18:42:48;20.10;99.90
13223;DHT22;6676;45.192;5.722;2023-05-08T18:45:39;20.10;99.90
13223;DHT22;6676;45.192;5.722;2023-05-08T18:48:31;20.00;99.90
13223;DHT22;6676;45.192;5.722;2023-05-08T18:51:22;20.00;99.90
13223;DHT22;6676;45.192;5.722;2023-05-08T18:54:13;20.00;99.90
13223;DHT22;6676;45.192;5.722;2023-05-08T18:57:05;19.90;99.90
13223;DHT22;6676;45.192;5.722;2023-05-08T18:59:57;19.90;99.90
13223;DHT22;6676;45.192;5.722;2023-05-08T19:02:48;19.90;99.90
13223;DHT22;6676;45.192;5.722;2023-05-08T19:05:41;19.90;99.90
13223;DHT22;6676;45.192;5.722;2023-05-08T19:08:34;19.80;99.90
13223;DHT22;6676;45.192;5.722;2023-05-08T19:11:26;19.70;99.90
13223;DHT22;6676;45.192;5.722;2023-05-08T19:14:17;19.70;99.90
13223;DHT22;6676;45.192;5.722;2023-05-08T19:19:49;19.70;99.90
13223;DHT22;6676;45.192;5.722;2023-05-08T19:22:41;19.70;99.90
13223;DHT22;6676;45.192;5.722;2023-05-08T19:25:32;19.70;99.90
13223;DHT22;6676;45.192;5.722;2023-05-08T19:28:23;19.60;99.90
13223;DHT22;6676;45.192;5.722;2023-05-08T19:31:15;19.50;99.90
13223;DHT22;6676;45.192;5.722;2023-05-08T19:34:06;19.50;99.90
13223;DHT22;6676;45.192;5.722;2023-05-08T19:39:37;19.40;99.90
13223;DHT22;6676;45.192;5.722;2023-05-08T19:42:27;19.40;99.90
13223;DHT22;6676;45.192;5.722;2023-05-08T19:45:22;19.40;99.90
13223;DHT22;6676;45.192;5.722;2023-05-08T19:51:04;19.30;99.90
13223;DHT22;6676;45.192;5.722;2023-05-08T19:56:35;19.30;99.90
13223;DHT22;6676;45.192;5.722;2023-05-08T20:02:05;19.20;99.90
13223;DHT22;6676;45.192;5.722;2023-05-08T20:07:36;19.20;99.90
13223;DHT22;6676;45.192;5.722;2023-05-08T20:10:27;19.20;99.90
13223;DHT22;6676;45.192;5.722;2023-05-08T20:13:18;19.10;99.90